Time;durP1;ratioP1;P1;durP2;ratioP2;P2;SDS_P1;SDS_P2;PMS_P1;PMS_P2;Temp;Humidity;BMP_temperature;BMP_pressure;BME280_temperature;BME280_humidity;BME280_pressure;Samples;Min_cycle;Max_cycle;Signal;HPM_P1;HPM_P2
2022/02/14 00:01:07;;;;;;;;;;;;;;;18.16;60.17;102025.88;5030087;28;1888;-35
2022/02/14 00:03:35;;;;;;;;;;;;;;;18.19;60.04;102025.69;5027387;28;1844;-34
2022/02/14 00:06:04;;;;;;;;;;;;;;;18.17;60.03;102023.09;5027835;28;1698;-35
2022/02/14 00:08:33;;;;;;;;;;;;;;;18.18;59.83;102030.16;5029322;28;1968;-35
2022/02/14 00:11:01;;;;;;;;;;;;;;;18.22;60.07;102037.06;5027231;28;1906;-34
2022/02/14 00:13:32;;;;;;;;;;;;;;;18.18;60.17;102024.81;5030749;28;1893;-35
2022/02/14 00:15:59;;;;;;;;;;;;;;;18.24;61.58;102024.44;5032004;28;1965;-35
2022/02/14 00:18:28;;;;;;;;;;;;;;;18.19;61.01;102007.81;5027818;28;1754;-35
2022/02/14 00:20:58;;;;;;;;;;;;;;;18.21;60.90;102013.06;5034202;28;1924;-35
2022/02/14 00:23:27;;;;;;;;;;;;;;;18.19;61.11;102018.50;5023215;28;1720;-35
2022/02/14 00:25:54;;;;;;;;;;;;;;;18.20;60.98;102009.50;5028109;28;1870;-34
2022/02/14 00:28:20;;;;;;;;;;;;;;;18.19;60.44;102013.16;5026769;28;1923;-34
2022/02/14 00:30:52;;;;;;;;;;;;;;;18.17;60.50;102006.19;5028714;28;1966;-35
2022/02/14 00:33:19;;;;;;;;;;;;;;;18.17;60.55;102012.41;5029873;28;1951;-35
2022/02/14 00:35:49;;;;;;;;;;;;;;;18.14;60.71;102006.38;5027239;28;1568;-35
2022/02/14 00:38:17;;;;;;;;;;;;;;;18.12;60.53;102011.81;5029887;28;1873;-35
2022/02/14 00:40:43;;;;;;;;;;;;;;;18.11;60.83;102007.44;5026566;28;1834;-35
2022/02/14 00:43:10;;;;;;;;;;;;;;;18.07;60.84;102006.78;5025011;28;1731;-35
2022/02/14 00:45:39;;;;;;;;;;;;;;;18.07;60.80;102011.28;5019631;28;1421;-34
2022/02/14 00:48:12;;;;;;;;;;;;;;;18.03;60.82;101999.06;5019799;28;1545;-35
2022/02/14 00:50:42;;;;;;;;;;;;;;;17.99;60.83;101997.53;5033777;28;2029;-36
2022/02/14 00:53:11;;;;;;;;;;;;;;;18.01;60.90;102004.50;5014127;28;1993;-35
2022/02/14 00:55:39;;;;;;;;;;;;;;;17.97;60.67;101994.09;5027146;28;1767;-36
2022/02/14 00:58:14;;;;;;;;;;;;;;;17.96;60.69;101992.38;5030206;28;1952;-35
2022/02/14 01:00:43;;;;;;;;;;;;;;;17.92;60.54;101989.03;5016287;28;1621;-34
2022/02/14 01:03:15;;;;;;;;;;;;;;;17.91;60.55;101984.66;5025290;28;1442;-35
2022/02/14 01:05:44;;;;;;;;;;;;;;;17.89;60.40;101976.72;5028368;28;1811;-34
2022/02/14 01:08:11;;;;;;;;;;;;;;;17.89;60.89;101981.22;5032021;28;1741;-34
2022/02/14 01:10:38;;;;;;;;;;;;;;;17.91;60.53;101979.28;5032616;28;2052;-34
2022/02/14 01:13:08;;;;;;;;;;;;;;;17.92;60.91;101977.47;5033577;28;1910;-34
2022/02/14 01:15:37;;;;;;;;;;;;;;;17.88;60.73;101961.59;5019923;28;1685;-35
2022/02/14 01:18:06;;;;;;;;;;;;;;;17.88;60.78;101958.91;5025879;28;1682;-34
2022/02/14 01:20:39;;;;;;;;;;;;;;;17.94;60.61;101962.16;5023689;28;2036;-35
2022/02/14 01:23:09;;;;;;;;;;;;;;;17.91;60.06;101957.03;5034323;28;1903;-35
2022/02/14 01:25:35;;;;;;;;;;;;;;;17.87;60.45;101951.88;5025533;28;1795;-35
2022/02/14 01:28:04;;;;;;;;;;;;;;;17.86;60.57;101959.97;5017557;28;1087;-34
2022/02/14 01:30:31;;;;;;;;;;;;;;;17.84;60.30;101957.41;5019480;28;1535;-35
2022/02/14 01:33:02;;;;;;;;;;;;;;;17.80;60.45;101961.19;5026400;28;1941;-34
2022/02/14 01:35:30;;;;;;;;;;;;;;;17.80;60.21;101952.31;5029773;28;2042;-34
2022/02/14 01:38:03;;;;;;;;;;;;;;;17.79;60.89;101948.78;5030855;28;1952;-34
2022/02/14 01:40:33;;;;;;;;;;;;;;;17.75;60.57;101949.94;5021485;28;1570;-34
2022/02/14 01:42:59;;;;;;;;;;;;;;;17.76;60.47;101954.34;5026850;28;1563;-35
2022/02/14 01:45:26;;;;;;;;;;;;;;;17.74;60.14;101939.34;5027387;28;1727;-35
2022/02/14 01:47:55;;;;;;;;;;;;;;;17.70;60.41;101934.19;5037350;28;2020;-34
2022/02/14 01:50:21;;;;;;;;;;;;;;;17.72;60.36;101950.13;5017024;28;1087;-35
2022/02/14 01:52:58;;;;;;;;;;;;;;;17.72;60.37;101931.41;5032937;28;1969;-34
2022/02/14 01:55:28;;;;;;;;;;;;;;;17.72;60.45;101931.41;5029999;28;1524;-34
2022/02/14 01:57:55;;;;;;;;;;;;;;;17.69;60.63;101928.94;5034442;28;1828;-35
2022/02/14 02:00:21;;;;;;;;;;;;;;;17.71;60.17;101935.06;5028632;28;1946;-34
2022/02/14 02:02:49;;;;;;;;;;;;;;;17.69;60.44;101920.91;5032500;28;1763;-35
2022/02/14 02:05:16;;;;;;;;;;;;;;;17.67;60.31;101926.38;5034044;28;2465;-35
2022/02/14 02:07:45;;;;;;;;;;;;;;;17.68;60.34;101922.72;5030762;28;1827;-35
2022/02/14 02:10:14;;;;;;;;;;;;;;;17.67;60.39;101915.66;5024314;28;1803;-34
2022/02/14 02:12:49;;;;;;;;;;;;;;;17.64;60.49;101906.97;5017332;28;2056;-35
2022/02/14 02:15:16;;;;;;;;;;;;;;;17.64;60.48;101913.16;5030018;28;1751;-35
2022/02/14 02:17:46;;;;;;;;;;;;;;;17.61;60.29;101908.03;5031656;28;1844;-34
2022/02/14 02:20:14;;;;;;;;;;;;;;;17.62;60.53;101911.56;5025335;28;1836;-35
2022/02/14 02:22:41;;;;;;;;;;;;;;;17.64;60.39;101902.47;5032794;28;1905;-34
2022/02/14 02:25:20;;;;;;;;;;;;;;;17.62;60.38;101906.22;5019739;28;1664;-35
2022/02/14 02:27:47;;;;;;;;;;;;;;;17.62;60.36;101904.38;5026477;28;1683;-34
2022/02/14 02:30:18;;;;;;;;;;;;;;;17.63;60.28;101910.63;5028794;28;1896;-34
2022/02/14 02:32:45;;;;;;;;;;;;;;;17.58;60.09;101910.91;5030997;28;1911;-35
2022/02/14 02:35:17;;;;;;;;;;;;;;;17.59;60.22;101914.44;5024766;28;1799;-34
2022/02/14 02:37:46;;;;;;;;;;;;;;;17.57;60.07;101911.88;5019955;28;1697;-34
2022/02/14 02:40:18;;;;;;;;;;;;;;;17.60;60.58;101918.81;5032663;28;1827;-35
2022/02/14 02:42:48;;;;;;;;;;;;;;;17.59;60.42;101917.13;5017510;28;1549;-34
2022/02/14 02:45:14;;;;;;;;;;;;;;;17.56;60.32;101909.28;5015782;28;1571;-36
2022/02/14 02:47:41;;;;;;;;;;;;;;;17.57;60.39;101908.34;5029283;28;1577;-34
2022/02/14 02:50:17;;;;;;;;;;;;;;;17.58;60.21;101912.72;5021643;28;1916;-35
2022/02/14 02:52:50;;;;;;;;;;;;;;;17.56;60.58;101907.47;5033827;28;1915;-35
2022/02/14 02:55:23;;;;;;;;;;;;;;;17.55;60.25;101911.09;5031498;28;1659;-34
2022/02/14 02:57:49;;;;;;;;;;;;;;;17.52;60.47;101905.09;5024686;28;1888;-34
2022/02/14 03:02:52;;;;;;;;;;;;;;;17.53;60.33;101914.81;5000399;22;1667;-34
2022/02/14 03:05:19;;;;;;;;;;;;;;;17.50;60.30;101906.03;5009515;28;1426;-34
2022/02/14 03:07:46;;;;;;;;;;;;;;;17.52;59.84;101907.75;5004536;28;1724;-34
2022/02/14 03:10:14;;;;;;;;;;;;;;;17.50;60.59;101906.03;5011048;28;1892;-34
2022/02/14 03:12:44;;;;;;;;;;;;;;;17.47;60.52;101906.25;5014983;28;1902;-34
2022/02/14 03:15:18;;;;;;;;;;;;;;;17.45;60.46;101910.84;4995861;28;1067;-34
2022/02/14 03:17:44;;;;;;;;;;;;;;;17.48;60.56;101917.78;4997892;28;1063;-34
2022/02/14 03:20:12;;;;;;;;;;;;;;;17.44;60.29;101893.06;4999645;28;1892;-34
2022/02/14 03:22:39;;;;;;;;;;;;;;;17.46;60.60;101909.84;5013097;28;1621;-34
2022/02/14 03:25:06;;;;;;;;;;;;;;;17.49;60.67;101903.47;5010804;28;1636;-34
2022/02/14 03:27:33;;;;;;;;;;;;;;;17.51;59.86;101901.56;5004650;28;1093;-34
2022/02/14 03:30:12;;;;;;;;;;;;;;;17.46;60.34;101904.50;5001714;28;1808;-35
2022/02/14 03:32:39;;;;;;;;;;;;;;;17.48;60.16;101913.28;5004084;28;1974;-34
2022/02/14 03:35:06;;;;;;;;;;;;;;;17.46;60.87;101904.50;5010644;28;1557;-34
2022/02/14 03:37:33;;;;;;;;;;;;;;;17.43;60.53;101894.03;5010451;28;1774;-34
2022/02/14 03:40:01;;;;;;;;;;;;;;;17.43;60.44;101898.53;5009294;28;1879;-34
2022/02/14 03:42:29;;;;;;;;;;;;;;;17.42;60.53;101903.00;5004820;28;1032;-34
2022/02/14 03:44:59;;;;;;;;;;;;;;;17.41;60.30;101893.25;5012202;28;1974;-34
2022/02/14 03:47:30;;;;;;;;;;;;;;;17.39;60.05;101897.84;5008883;28;1759;-34
2022/02/14 03:49:57;;;;;;;;;;;;;;;17.39;60.65;101888.94;5006690;28;1760;-34
2022/02/14 03:52:24;;;;;;;;;;;;;;;17.37;60.56;101877.50;5012901;28;1902;-34
2022/02/14 03:54:52;;;;;;;;;;;;;;;17.39;60.18;101891.63;5008395;28;1839;-34
2022/02/14 03:57:19;;;;;;;;;;;;;;;17.36;60.73;101895.34;5010978;28;1062;-35
2022/02/14 03:59:45;;;;;;;;;;;;;;;17.34;60.74;101878.56;5011286;28;1573;-34
2022/02/14 04:02:12;;;;;;;;;;;;;;;17.35;60.15;101874.06;5014035;28;1780;-34
2022/02/14 04:04:42;;;;;;;;;;;;;;;17.33;60.50;101878.66;5007557;28;1342;-35
2022/02/14 04:07:09;;;;;;;;;;;;;;;17.35;59.97;101890.97;5003958;28;1689;-34
2022/02/14 04:09:36;;;;;;;;;;;;;;;17.36;60.31;101881.13;5001835;28;1657;-34
2022/02/14 04:12:02;;;;;;;;;;;;;;;17.35;60.33;101879.41;5008368;28;1906;-34
2022/02/14 04:14:29;;;;;;;;;;;;;;;17.34;60.41;101875.03;5009249;28;1814;-34
2022/02/14 04:16:56;;;;;;;;;;;;;;;17.32;60.45;101880.47;5002155;28;1670;-34
2022/02/14 04:19:23;;;;;;;;;;;;;;;17.32;60.09;101880.47;5004313;28;2031;-34
2022/02/14 04:21:53;;;;;;;;;;;;;;;17.30;60.54;101861.00;5000097;28;1088;-34
2022/02/14 04:24:20;;;;;;;;;;;;;;;17.31;60.48;101865.41;5002843;28;1622;-34
2022/02/14 04:26:47;;;;;;;;;;;;;;;17.30;60.38;101866.34;5010670;28;1764;-34
2022/02/14 04:29:19;;;;;;;;;;;;;;;17.29;59.90;101881.53;5013845;28;1751;-34
2022/02/14 04:31:46;;;;;;;;;;;;;;;17.32;60.44;101876.94;5012856;28;1751;-34
2022/02/14 04:34:18;;;;;;;;;;;;;;;17.28;60.06;101861.09;5005876;28;1966;-34
2022/02/14 04:36:46;;;;;;;;;;;;;;;17.29;60.14;101860.16;5003682;28;1072;-34
2022/02/14 04:39:18;;;;;;;;;;;;;;;17.27;59.80;101858.53;5006573;28;1764;-34
2022/02/14 04:41:45;;;;;;;;;;;;;;;17.25;59.97;101847.94;5011239;28;1792;-34
2022/02/14 04:44:13;;;;;;;;;;;;;;;17.25;60.33;101855.09;5009511;28;1522;-34
2022/02/14 04:46:41;;;;;;;;;;;;;;;17.24;60.40;101851.53;5006241;28;1873;-34
2022/02/14 04:49:12;;;;;;;;;;;;;;;17.24;60.48;101845.34;5007909;28;1632;-34
2022/02/14 04:51:42;;;;;;;;;;;;;;;17.23;60.58;101849.84;5009806;28;1847;-34
2022/02/14 04:54:09;;;;;;;;;;;;;;;17.23;60.56;101851.63;4998680;28;1906;-34
2022/02/14 04:56:39;;;;;;;;;;;;;;;17.26;60.41;101864.81;5005397;28;1581;-34
2022/02/14 04:59:10;;;;;;;;;;;;;;;17.27;59.99;101863.88;5012076;28;1783;-34
2022/02/14 05:01:38;;;;;;;;;;;;;;;17.22;60.23;101860.63;5011878;28;1448;-34
2022/02/14 05:04:06;;;;;;;;;;;;;;;17.23;60.48;101854.31;5003496;28;1613;-34
2022/02/14 05:06:33;;;;;;;;;;;;;;;17.20;60.38;101863.38;5004038;28;1497;-34
2022/02/14 05:09:02;;;;;;;;;;;;;;;17.20;60.30;101866.06;5011848;28;1723;-34
2022/02/14 05:11:30;;;;;;;;;;;;;;;17.18;60.17;101859.09;5013508;28;2048;-34
2022/02/14 05:13:58;;;;;;;;;;;;;;;17.17;60.60;101854.69;5010131;28;1906;-34
2022/02/14 05:16:24;;;;;;;;;;;;;;;17.19;60.43;101853.66;4999998;28;1804;-34
2022/02/14 05:18:53;;;;;;;;;;;;;;;17.18;60.40;101861.78;5005869;28;1565;-34
2022/02/14 05:21:20;;;;;;;;;;;;;;;17.16;60.43;101861.03;4995067;28;1086;-34
2022/02/14 05:23:47;;;;;;;;;;;;;;;17.14;60.21;101860.25;4998160;28;1959;-34
2022/02/14 05:26:15;;;;;;;;;;;;;;;17.16;60.27;101869.03;5009839;28;1815;-34
2022/02/14 05:28:54;;;;;;;;;;;;;;;17.16;60.19;101869.88;5013341;28;1581;-34
2022/02/14 05:31:27;;;;;;;;;;;;;;;17.14;59.77;101871.81;5000775;28;1835;-34
2022/02/14 05:33:55;;;;;;;;;;;;;;;17.15;60.09;101878.00;5001444;28;1973;-34
2022/02/14 05:36:23;;;;;;;;;;;;;;;17.18;60.37;101880.50;5002819;28;1635;-34
2022/02/14 05:38:49;;;;;;;;;;;;;;;17.18;59.96;101875.16;5012693;28;1410;-34
2022/02/14 05:41:17;;;;;;;;;;;;;;;17.19;59.75;101880.41;5009774;28;1794;-34
2022/02/14 05:43:44;;;;;;;;;;;;;;;17.18;60.40;101876.00;5000807;28;1658;-34
2022/02/14 05:46:14;;;;;;;;;;;;;;;17.23;58.04;101886.38;5006542;28;1765;-34
2022/02/14 05:48:45;;;;;;;;;;;;;;;17.20;59.04;101878.56;5012323;28;1639;-34
2022/02/14 05:51:12;;;;;;;;;;;;;;;17.22;59.52;101885.53;5001671;28;1847;-34
2022/02/14 05:53:45;;;;;;;;;;;;;;;17.16;59.42;101895.75;4995051;28;1902;-34
2022/02/14 05:56:11;;;;;;;;;;;;;;;17.24;58.62;101913.03;5012482;28;1760;-34
2022/02/14 05:58:38;;;;;;;;;;;;;;;17.23;59.23;101897.09;5011717;28;1284;-34
2022/02/14 06:01:04;;;;;;;;;;;;;;;17.27;59.30;101903.97;5011023;28;1354;-34
2022/02/14 06:03:36;;;;;;;;;;;;;;;17.34;59.02;101915.13;5013461;28;1568;-34
2022/02/14 06:08:54;;;;;;;;;;;;;;;17.35;57.30;101917.72;5001226;28;2077;-35
2022/02/14 06:11:22;;;;;;;;;;;;;;;17.38;58.02;101909.50;5007597;28;1954;-34
2022/02/14 06:13:52;;;;;;;;;;;;;;;17.44;59.05;101910.91;5013416;28;1981;-34
2022/02/14 06:16:20;;;;;;;;;;;;;;;17.41;58.56;101909.31;5010261;28;2010;-35
2022/02/14 06:18:50;;;;;;;;;;;;;;;18.02;57.29;101917.03;5011412;28;1641;-34
2022/02/14 06:21:25;;;;;;;;;;;;;;;18.62;56.79;101889.78;5005928;28;1792;-34
2022/02/14 06:23:51;;;;;;;;;;;;;;;19.32;54.55;101912.63;5014288;28;1771;-34
2022/02/14 06:26:18;;;;;;;;;;;;;;;20.00;53.55;101918.47;5009585;28;1494;-34
2022/02/14 06:28:44;;;;;;;;;;;;;;;19.94;53.88;101905.50;5015613;28;1887;-35
2022/02/14 06:31:11;;;;;;;;;;;;;;;19.73;54.62;101908.78;5017831;28;1850;-35
2022/02/14 06:33:38;;;;;;;;;;;;;;;20.12;54.99;101911.34;5010640;28;1902;-34
2022/02/14 06:36:05;;;;;;;;;;;;;;;20.32;54.17;101907.13;5008638;28;1578;-34
2022/02/14 06:38:33;;;;;;;;;;;;;;;20.17;55.44;101895.72;5008757;28;1632;-35
2022/02/14 06:41:00;;;;;;;;;;;;;;;20.30;55.06;101903.72;5005512;28;1510;-34
2022/02/14 06:43:26;;;;;;;;;;;;;;;20.28;55.38;101903.81;5005771;28;1450;-34
2022/02/14 06:45:52;;;;;;;;;;;;;;;20.23;55.84;101903.31;5007491;28;1468;-34
2022/02/14 06:48:19;;;;;;;;;;;;;;;20.31;56.54;101891.97;5015066;28;1637;-34
2022/02/14 06:50:45;;;;;;;;;;;;;;;20.41;56.05;101899.25;5009290;28;1518;-35
2022/02/14 06:53:13;;;;;;;;;;;;;;;20.27;56.11;101908.34;5010181;28;2002;-33
2022/02/14 06:55:52;;;;;;;;;;;;;;;20.36;57.34;101905.94;5012753;28;1770;-34
2022/02/14 07:01:09;;;;;;;;;;;;;;;20.26;56.68;101895.03;5009919;28;1581;-34
2022/02/14 07:03:38;;;;;;;;;;;;;;;20.61;56.04;101903.13;5009938;28;1641;-33
2022/02/14 07:06:05;;;;;;;;;;;;;;;20.58;55.31;101915.88;5002456;28;1934;-34
2022/02/14 07:08:32;;;;;;;;;;;;;;;20.64;56.32;101904.69;5011724;28;1511;-34
2022/02/14 07:11:02;;;;;;;;;;;;;;;20.82;55.07;101895.19;5009957;28;2007;-33
2022/02/14 07:13:31;;;;;;;;;;;;;;;20.83;55.48;101899.59;5013755;28;1997;-34
2022/02/14 07:15:59;;;;;;;;;;;;;;;20.73;55.46;101892.38;5011112;28;1799;-34
2022/02/14 07:18:30;;;;;;;;;;;;;;;20.93;55.08;101891.69;5001995;28;1665;-31
2022/02/14 07:20:57;;;;;;;;;;;;;;;20.69;54.43;101894.47;5007312;28;1716;-32
2022/02/14 07:23:25;;;;;;;;;;;;;;;20.71;55.22;101892.50;5009789;28;1978;-32
2022/02/14 07:25:53;;;;;;;;;;;;;;;20.85;54.80;101880.69;5004657;28;2001;-34
2022/02/14 07:28:25;;;;;;;;;;;;;;;20.50;54.08;101892.28;5015691;28;1080;-34
2022/02/14 07:31:00;;;;;;;;;;;;;;;20.42;54.43;101876.75;5008628;28;1928;-34
2022/02/14 07:33:31;;;;;;;;;;;;;;;20.01;54.86;101887.94;5011013;28;1906;-34
2022/02/14 07:35:58;;;;;;;;;;;;;;;20.19;54.95;101875.84;5010079;28;2106;-34
2022/02/14 07:38:28;;;;;;;;;;;;;;;20.17;54.43;101885.81;5009759;28;1740;-34
2022/02/14 07:40:57;;;;;;;;;;;;;;;20.14;54.71;101890.59;5006477;28;1885;-34
2022/02/14 07:43:29;;;;;;;;;;;;;;;19.81;55.39;101870.66;5004822;28;1862;-34
2022/02/14 07:45:56;;;;;;;;;;;;;;;19.93;56.26;101879.63;5006841;28;1443;-35
2022/02/14 07:48:25;;;;;;;;;;;;;;;19.91;55.25;101878.88;4995886;28;1780;-34
2022/02/14 07:50:53;;;;;;;;;;;;;;;19.80;56.22;101877.00;5007299;28;1949;-35
2022/02/14 07:53:20;;;;;;;;;;;;;;;19.84;55.37;101882.03;5001630;28;1976;-34
2022/02/14 07:55:49;;;;;;;;;;;;;;;20.02;55.39;101884.31;5011367;28;1163;-34
2022/02/14 07:58:18;;;;;;;;;;;;;;;19.79;55.69;101878.81;5012869;28;2334;-34
2022/02/14 08:00:46;;;;;;;;;;;;;;;19.85;55.58;101885.56;5009525;28;1828;-34
2022/02/14 08:03:13;;;;;;;;;;;;;;;19.90;56.46;101872.66;5003267;28;1766;-34
2022/02/14 08:05:41;;;;;;;;;;;;;;;19.94;55.56;101857.19;5008312;28;1566;-34
2022/02/14 08:08:08;;;;;;;;;;;;;;;20.00;55.18;101859.41;5000510;28;1728;-34
2022/02/14 08:10:36;;;;;;;;;;;;;;;20.14;54.21;101861.91;5013775;28;1576;-34
2022/02/14 08:13:03;;;;;;;;;;;;;;;20.44;53.68;101860.53;5011580;28;1918;-34
2022/02/14 08:15:31;;;;;;;;;;;;;;;20.57;54.01;101866.66;5010567;28;1902;-34
2022/02/14 08:18:04;;;;;;;;;;;;;;;20.68;53.81;101865.84;5000702;28;1724;-34
2022/02/14 08:20:32;;;;;;;;;;;;;;;20.78;54.36;101868.69;5004459;28;1497;-35
2022/02/14 08:23:00;;;;;;;;;;;;;;;20.91;54.62;101879.31;5013104;28;1606;-34
2022/02/14 08:25:27;;;;;;;;;;;;;;;20.77;54.73;101840.94;5004712;28;1714;-34
2022/02/14 08:27:53;;;;;;;;;;;;;;;20.50;55.70;101865.41;5002289;28;1684;-34
2022/02/14 08:30:20;;;;;;;;;;;;;;;20.49;56.30;101841.34;5004725;28;1520;-34
2022/02/14 08:32:50;;;;;;;;;;;;;;;20.84;55.74;101852.06;5008218;28;1603;-34
2022/02/14 08:35:32;;;;;;;;;;;;;;;20.87;54.81;101859.91;5000462;28;1981;-34
2022/02/14 08:38:02;;;;;;;;;;;;;;;20.68;56.41;101865.00;5004722;28;1472;-34
2022/02/14 08:40:30;;;;;;;;;;;;;;;20.27;57.09;101868.06;5006299;28;1664;-34
2022/02/14 08:43:05;;;;;;;;;;;;;;;20.20;56.91;101855.22;5003348;28;1760;-34
2022/02/14 08:45:32;;;;;;;;;;;;;;;20.39;56.64;101855.50;5008327;28;1488;-34
2022/02/14 08:48:01;;;;;;;;;;;;;;;19.88;57.41;101842.38;5003627;28;1849;-34
2022/02/14 08:50:29;;;;;;;;;;;;;;;20.34;56.11;101848.78;4994660;28;1083;-33
2022/02/14 08:53:00;;;;;;;;;;;;;;;20.67;55.97;101850.69;5011672;28;1985;-33
2022/02/14 08:55:33;;;;;;;;;;;;;;;20.46;55.48;101850.50;4999816;28;1996;-33
2022/02/14 08:58:00;;;;;;;;;;;;;;;20.35;55.70;101845.09;5009059;28;1583;-33
2022/02/14 09:00:28;;;;;;;;;;;;;;;20.50;56.38;101833.19;5007631;28;1379;-33
2022/02/14 09:02:54;;;;;;;;;;;;;;;20.51;56.31;101842.94;5001322;28;1589;-34
2022/02/14 09:05:23;;;;;;;;;;;;;;;20.73;55.76;101842.16;5001840;28;1576;-34
2022/02/14 09:07:50;;;;;;;;;;;;;;;19.89;56.46;101832.50;5008528;28;1557;-33
2022/02/14 09:10:17;;;;;;;;;;;;;;;20.05;55.09;101833.03;5010679;28;1577;-33
2022/02/14 09:12:46;;;;;;;;;;;;;;;20.20;55.70;101831.88;5001048;28;1428;-34
2022/02/14 09:15:12;;;;;;;;;;;;;;;20.26;54.93;101822.50;5002654;28;1921;-33
2022/02/14 09:17:39;;;;;;;;;;;;;;;20.23;55.49;101834.34;5001280;28;1749;-34
2022/02/14 09:20:06;;;;;;;;;;;;;;;20.23;55.09;101837.03;5000665;28;1824;-34
2022/02/14 09:22:32;;;;;;;;;;;;;;;20.32;55.08;101839.97;5010822;28;1788;-34
2022/02/14 09:24:59;;;;;;;;;;;;;;;20.29;55.73;101811.50;5004541;28;1840;-34
2022/02/14 09:27:25;;;;;;;;;;;;;;;20.52;55.45;101833.91;5003443;28;1032;-33
2022/02/14 09:29:53;;;;;;;;;;;;;;;20.62;55.13;101847.53;4998185;28;1647;-33
2022/02/14 09:32:21;;;;;;;;;;;;;;;20.62;54.16;101837.63;5001194;28;1581;-34
2022/02/14 09:34:47;;;;;;;;;;;;;;;20.61;54.49;101837.72;5002846;28;1899;-34
2022/02/14 09:37:15;;;;;;;;;;;;;;;20.63;54.07;101836.66;5003403;28;2416;-34
2022/02/14 09:39:41;;;;;;;;;;;;;;;20.61;54.29;101829.66;5008076;28;1606;-34
2022/02/14 09:42:08;;;;;;;;;;;;;;;20.60;54.88;101812.69;5008910;28;1074;-34
2022/02/14 09:44:35;;;;;;;;;;;;;;;20.65;55.46;101836.50;5008219;28;1764;-34
2022/02/14 09:47:04;;;;;;;;;;;;;;;20.66;54.43;101814.06;5006681;28;1669;-33
2022/02/14 09:49:31;;;;;;;;;;;;;;;20.65;54.96;101828.44;5006927;28;1691;-33
2022/02/14 09:51:57;;;;;;;;;;;;;;;20.66;55.52;101833.72;5006550;28;1692;-33
2022/02/14 10:12:14;;;;;;;;;;;;;;;19.83;57.18;101770.25;4500610;27;17361413;-35
2022/02/14 10:14:41;;;;;;;;;;;;;;;20.05;56.59;101764.09;5110373;28;1893;-34
2022/02/14 10:17:09;;;;;;;;;;;;;;;20.34;56.30;101752.06;5121527;28;1722;-34
2022/02/14 10:19:36;;;;;;;;;;;;;;;20.47;54.77;101766.22;5110766;28;1906;-35
2022/02/14 10:22:07;;;;;;;;;;;;;;;20.49;55.57;101742.78;5103115;28;1582;-35
2022/02/14 10:24:38;;;;;;;;;;;;;;;20.49;55.39;101758.06;5106131;27;1727;-34
2022/02/14 10:27:06;;;;;;;;;;;;;;;20.31;55.75;101737.03;5106896;28;1606;-34
2022/02/14 10:29:34;;;;;;;;;;;;;;;20.29;56.33;101732.75;5110832;28;1828;-34
2022/02/14 10:32:01;;;;;;;;;;;;;;;20.49;54.94;101763.44;5110994;27;1696;-34
2022/02/14 10:34:34;;;;;;;;;;;;;;;20.55;55.92;101739.63;5103750;28;1641;-34
2022/02/14 10:37:00;;;;;;;;;;;;;;;20.46;55.99;101734.97;5111194;28;1591;-35
2022/02/14 10:39:28;;;;;;;;;;;;;;;20.41;55.40;101721.03;5112389;27;1972;-35
2022/02/14 10:41:56;;;;;;;;;;;;;;;20.43;55.68;101719.09;5106871;27;1773;-34
2022/02/14 10:47:11;;;;;;;;;;;;;;;20.44;55.42;101718.97;5106424;28;1764;-34
2022/02/14 10:49:38;;;;;;;;;;;;;;;20.47;54.62;101715.19;5104317;28;1635;-34
2022/02/14 10:52:06;;;;;;;;;;;;;;;20.57;55.65;101721.56;5120645;28;1812;-34
2022/02/14 10:54:37;;;;;;;;;;;;;;;20.48;55.76;101703.47;5120188;28;1410;-34
2022/02/14 10:57:03;;;;;;;;;;;;;;;20.58;55.35;101698.22;5119328;27;1408;-34
2022/02/14 10:59:31;;;;;;;;;;;;;;;20.61;54.29;101689.91;5116391;27;1906;-34
2022/02/14 11:01:57;;;;;;;;;;;;;;;20.57;55.35;101699.19;5100781;28;1756;-34
2022/02/14 11:04:25;;;;;;;;;;;;;;;20.59;55.08;101695.44;5091913;28;2070;-34
2022/02/14 11:06:52;;;;;;;;;;;;;;;20.59;55.47;101698.13;5092406;28;1526;-34
2022/02/14 11:09:20;;;;;;;;;;;;;;;20.57;54.39;101694.69;5102090;28;1367;-33
2022/02/14 11:11:47;;;;;;;;;;;;;;;20.63;55.33;101699.59;5106747;28;1677;-34
2022/02/14 11:14:15;;;;;;;;;;;;;;;20.56;54.36;101694.81;5104123;28;1566;-34
2022/02/14 11:16:42;;;;;;;;;;;;;;;20.71;53.84;101701.66;5102676;28;1831;-34
2022/02/14 11:19:10;;;;;;;;;;;;;;;20.36;54.82;101689.19;5095883;28;1734;-33
2022/02/14 11:21:38;;;;;;;;;;;;;;;20.31;54.68;101690.53;5095200;28;1906;-34
2022/02/14 11:24:22;;;;;;;;;;;;;;;20.24;55.74;101687.47;5101431;28;1800;-34
2022/02/14 11:26:55;;;;;;;;;;;;;;;20.23;55.89;101694.69;5101124;28;1697;-34
2022/02/14 11:29:37;;;;;;;;;;;;;;;20.21;55.29;101695.75;5100587;28;1686;-34
2022/02/14 11:32:19;;;;;;;;;;;;;;;20.22;55.49;101706.38;5085184;28;1848;-33
2022/02/14 11:34:53;;;;;;;;;;;;;;;20.20;55.18;101718.22;5101821;28;1503;-34
2022/02/14 11:37:21;;;;;;;;;;;;;;;20.19;54.95;101717.38;5098435;28;1603;-33
2022/02/14 11:39:48;;;;;;;;;;;;;;;20.33;54.56;101683.19;5100543;28;1913;-34
2022/02/14 11:42:15;;;;;;;;;;;;;;;19.90;56.45;101690.13;5103103;28;1707;-34
2022/02/14 11:44:42;;;;;;;;;;;;;;;19.54;56.73;101697.31;5111980;28;2051;-34
2022/02/14 11:47:14;;;;;;;;;;;;;;;19.28;57.21;101675.97;5101366;28;1763;-34
2022/02/14 11:49:42;;;;;;;;;;;;;;;19.19;57.30;101683.84;5102494;28;1684;-33
2022/02/14 11:52:09;;;;;;;;;;;;;;;19.10;58.18;101657.72;5105521;28;1819;-34
2022/02/14 11:54:38;;;;;;;;;;;;;;;19.32;57.58;101652.47;5097805;28;2474;-33
2022/02/14 11:57:26;;;;;;;;;;;;;;;19.90;56.27;101673.16;5106548;28;1551;-34
2022/02/14 11:59:53;;;;;;;;;;;;;;;20.02;55.70;101658.78;5101568;28;1914;-34
2022/02/14 12:02:29;;;;;;;;;;;;;;;19.74;57.33;101666.28;5096003;28;1847;-34
2022/02/14 12:04:56;;;;;;;;;;;;;;;19.46;59.21;101660.31;5088976;28;1955;-34
2022/02/14 12:07:43;;;;;;;;;;;;;;;19.50;57.61;101666.31;5102098;28;1434;-34
2022/02/14 12:10:14;;;;;;;;;;;;;;;19.94;57.24;101659.38;5090994;28;2280;-34
2022/02/14 12:13:03;;;;;;;;;;;;;;;19.96;56.54;101646.69;5104208;28;1988;-33
2022/02/14 12:21:12;;;;;;;;;;;;;;;20.38;55.96;101635.34;5089008;28;1983;-34
2022/02/14 12:23:40;;;;;;;;;;;;;;;20.34;56.33;101642.78;5096808;28;1498;-33
2022/02/14 12:26:08;;;;;;;;;;;;;;;20.24;56.26;101639.97;5102478;28;1931;-34
2022/02/14 12:28:36;;;;;;;;;;;;;;;20.27;57.34;101655.84;5105230;28;1709;-33
2022/02/14 12:31:02;;;;;;;;;;;;;;;20.32;56.54;101660.00;5099505;28;1689;-34
2022/02/14 12:33:29;;;;;;;;;;;;;;;20.38;56.79;101646.09;5093784;28;1419;-34
2022/02/14 12:35:56;;;;;;;;;;;;;;;20.42;56.90;101642.16;5097854;28;1497;-34
2022/02/14 12:38:25;;;;;;;;;;;;;;;20.45;55.68;101632.03;5097367;28;1620;-34
2022/02/14 12:40:53;;;;;;;;;;;;;;;20.27;57.02;101631.69;5103273;28;1902;-34
2022/02/14 12:43:25;;;;;;;;;;;;;;;20.25;56.47;101639.00;5103672;28;1265;-34
2022/02/14 12:45:53;;;;;;;;;;;;;;;20.25;56.57;101636.31;5086659;28;1484;-34
2022/02/14 12:48:30;;;;;;;;;;;;;;;20.11;57.04;101628.50;5104760;28;1410;-34
2022/02/14 12:50:56;;;;;;;;;;;;;;;20.18;57.93;101635.09;5101778;28;1445;-34
2022/02/14 12:53:23;;;;;;;;;;;;;;;20.26;56.74;101631.81;5104667;28;1622;-34
2022/02/14 12:55:50;;;;;;;;;;;;;;;20.13;56.31;101621.16;5096846;28;1531;-34
2022/02/14 12:58:16;;;;;;;;;;;;;;;20.23;55.89;101630.22;5103425;28;1083;-34
2022/02/14 13:00:44;;;;;;;;;;;;;;;20.31;55.57;101636.78;5110759;28;1902;-34
2022/02/14 13:03:12;;;;;;;;;;;;;;;20.36;55.37;101634.59;5101868;28;1434;-35
2022/02/14 13:05:39;;;;;;;;;;;;;;;20.46;55.82;101628.34;5093160;28;1575;-34
2022/02/14 13:08:16;;;;;;;;;;;;;;;20.31;56.84;101629.59;5103032;28;1449;-34
2022/02/14 13:10:44;;;;;;;;;;;;;;;20.26;57.25;101632.66;5093173;28;1806;-34
2022/02/14 13:13:10;;;;;;;;;;;;;;;20.26;56.51;101616.53;5105742;28;1036;-34
2022/02/14 13:15:41;;;;;;;;;;;;;;;20.33;56.20;101618.72;5082034;28;1877;-34
2022/02/14 13:18:09;;;;;;;;;;;;;;;20.26;57.75;101629.97;5096620;28;1437;-34
2022/02/14 13:20:36;;;;;;;;;;;;;;;20.32;56.84;101641.22;5083335;28;1976;-34
2022/02/14 13:23:02;;;;;;;;;;;;;;;20.29;56.37;101625.31;5092933;28;1354;-32
2022/02/14 13:25:29;;;;;;;;;;;;;;;20.31;57.51;101631.44;5092976;28;1549;-32
2022/02/14 13:27:57;;;;;;;;;;;;;;;20.27;57.32;101631.69;5096978;28;1542;-32